sensor_id;sensor_type;location;lat;lon;timestamp;temperature;humidity
47845;DHT22;33605;48.822;8.796;2022-12-07T00:01:06;8.00;60.00
47845;DHT22;33605;48.822;8.796;2022-12-07T00:03:33;8.00;60.00
47845;DHT22;33605;48.822;8.796;2022-12-07T00:05:59;8.00;60.00
47845;DHT22;33605;48.822;8.796;2022-12-07T00:08:25;8.00;60.00
47845;DHT22;33605;48.822;8.796;2022-12-07T00:10:50;7.90;59.90
47845;DHT22;33605;48.822;8.796;2022-12-07T00:13:16;8.00;59.90
47845;DHT22;33605;48.822;8.796;2022-12-07T00:15:42;7.90;59.80
47845;DHT22;33605;48.822;8.796;2022-12-07T00:18:08;8.00;59.90
47845;DHT22;33605;48.822;8.796;2022-12-07T00:20:33;7.90;59.70
47845;DHT22;33605;48.822;8.796;2022-12-07T00:22:59;7.90;59.70
47845;DHT22;33605;48.822;8.796;2022-12-07T00:25:25;8.00;60.20
47845;DHT22;33605;48.822;8.796;2022-12-07T00:27:52;7.90;59.70
47845;DHT22;33605;48.822;8.796;2022-12-07T00:30:19;7.90;59.70
47845;DHT22;33605;48.822;8.796;2022-12-07T00:32:44;7.90;59.80
47845;DHT22;33605;48.822;8.796;2022-12-07T00:35:10;7.90;59.80
47845;DHT22;33605;48.822;8.796;2022-12-07T00:37:35;7.80;59.80
47845;DHT22;33605;48.822;8.796;2022-12-07T00:40:01;7.80;59.90
47845;DHT22;33605;48.822;8.796;2022-12-07T00:42:27;7.80;59.90
47845;DHT22;33605;48.822;8.796;2022-12-07T00:44:52;7.80;60.00
47845;DHT22;33605;48.822;8.796;2022-12-07T00:47:18;7.80;60.00
47845;DHT22;33605;48.822;8.796;2022-12-07T00:49:43;7.80;60.00
47845;DHT22;33605;48.822;8.796;2022-12-07T00:52:09;7.80;60.00
47845;DHT22;33605;48.822;8.796;2022-12-07T00:54:35;7.80;60.00
47845;DHT22;33605;48.822;8.796;2022-12-07T00:57:00;7.80;60.00
47845;DHT22;33605;48.822;8.796;2022-12-07T00:59:26;7.80;60.00
47845;DHT22;33605;48.822;8.796;2022-12-07T01:01:52;7.80;60.00
47845;DHT22;33605;48.822;8.796;2022-12-07T01:04:17;7.80;60.00
47845;DHT22;33605;48.822;8.796;2022-12-07T01:06:43;7.80;60.10
47845;DHT22;33605;48.822;8.796;2022-12-07T01:09:09;7.80;60.50
47845;DHT22;33605;48.822;8.796;2022-12-07T01:11:35;7.70;60.00
47845;DHT22;33605;48.822;8.796;2022-12-07T01:14:00;7.70;60.00
47845;DHT22;33605;48.822;8.796;2022-12-07T01:16:28;7.80;60.60
47845;DHT22;33605;48.822;8.796;2022-12-07T01:18:56;7.70;60.10
47845;DHT22;33605;48.822;8.796;2022-12-07T01:21:27;7.70;60.10
47845;DHT22;33605;48.822;8.796;2022-12-07T01:23:53;7.70;60.10
47845;DHT22;33605;48.822;8.796;2022-12-07T01:26:22;7.70;60.10
47845;DHT22;33605;48.822;8.796;2022-12-07T01:28:48;7.70;60.20
47845;DHT22;33605;48.822;8.796;2022-12-07T01:31:16;7.70;60.20
47845;DHT22;33605;48.822;8.796;2022-12-07T01:33:47;7.60;60.10
47845;DHT22;33605;48.822;8.796;2022-12-07T01:36:22;7.70;60.20
47845;DHT22;33605;48.822;8.796;2022-12-07T01:38:49;7.60;60.20
47845;DHT22;33605;48.822;8.796;2022-12-07T01:41:19;7.70;60.20
47845;DHT22;33605;48.822;8.796;2022-12-07T01:44:23;7.60;60.10
47845;DHT22;33605;48.822;8.796;2022-12-07T01:49:18;7.70;60.20
47845;DHT22;33605;48.822;8.796;2022-12-07T01:51:47;7.70;60.20
47845;DHT22;33605;48.822;8.796;2022-12-07T01:54:15;7.60;60.10
47845;DHT22;33605;48.822;8.796;2022-12-07T01:56:47;7.60;60.10
47845;DHT22;33605;48.822;8.796;2022-12-07T01:59:15;7.60;60.10
47845;DHT22;33605;48.822;8.796;2022-12-07T02:01:41;7.60;60.10
47845;DHT22;33605;48.822;8.796;2022-12-07T02:04:07;7.60;60.10
47845;DHT22;33605;48.822;8.796;2022-12-07T02:06:35;7.60;60.00
47845;DHT22;33605;48.822;8.796;2022-12-07T02:09:02;7.60;60.10
47845;DHT22;33605;48.822;8.796;2022-12-07T02:11:28;7.60;60.00
47845;DHT22;33605;48.822;8.796;2022-12-07T02:13:54;7.60;60.00
47845;DHT22;33605;48.822;8.796;2022-12-07T02:22:12;7.60;60.00
47845;DHT22;33605;48.822;8.796;2022-12-07T02:24:54;7.60;60.00
47845;DHT22;33605;48.822;8.796;2022-12-07T02:30:34;7.60;59.80
47845;DHT22;33605;48.822;8.796;2022-12-07T02:33:29;7.60;59.80
47845;DHT22;33605;48.822;8.796;2022-12-07T02:36:06;7.60;59.70
47845;DHT22;33605;48.822;8.796;2022-12-07T02:38:38;7.60;59.70
47845;DHT22;33605;48.822;8.796;2022-12-07T02:41:11;7.60;59.70
47845;DHT22;33605;48.822;8.796;2022-12-07T02:43:45;7.60;59.70
47845;DHT22;33605;48.822;8.796;2022-12-07T02:46:15;7.60;59.60
47845;DHT22;33605;48.822;8.796;2022-12-07T02:48:43;7.60;59.50
47845;DHT22;33605;48.822;8.796;2022-12-07T02:51:09;7.60;59.40
47845;DHT22;33605;48.822;8.796;2022-12-07T02:53:39;7.60;59.30
47845;DHT22;33605;48.822;8.796;2022-12-07T02:56:16;7.60;59.30
47845;DHT22;33605;48.822;8.796;2022-12-07T03:01:30;7.60;59.10
47845;DHT22;33605;48.822;8.796;2022-12-07T03:04:17;7.60;59.00
47845;DHT22;33605;48.822;8.796;2022-12-07T03:06:58;7.50;58.90
47845;DHT22;33605;48.822;8.796;2022-12-07T03:12:30;7.50;58.80
47845;DHT22;33605;48.822;8.796;2022-12-07T03:15:14;7.50;58.70
47845;DHT22;33605;48.822;8.796;2022-12-07T03:17:42;7.50;58.70
47845;DHT22;33605;48.822;8.796;2022-12-07T03:20:14;7.50;58.70
47845;DHT22;33605;48.822;8.796;2022-12-07T03:22:42;7.40;58.50
47845;DHT22;33605;48.822;8.796;2022-12-07T03:25:11;7.50;58.60
47845;DHT22;33605;48.822;8.796;2022-12-07T03:30:20;7.40;58.30
47845;DHT22;33605;48.822;8.796;2022-12-07T03:33:04;7.40;58.20
47845;DHT22;33605;48.822;8.796;2022-12-07T03:35:37;7.40;58.20
47845;DHT22;33605;48.822;8.796;2022-12-07T03:40:47;7.30;57.90
47845;DHT22;33605;48.822;8.796;2022-12-07T03:43:16;7.30;57.90
47845;DHT22;33605;48.822;8.796;2022-12-07T03:45:48;7.30;57.80
47845;DHT22;33605;48.822;8.796;2022-12-07T03:48:27;7.30;57.70
47845;DHT22;33605;48.822;8.796;2022-12-07T03:53:44;7.30;57.50
47845;DHT22;33605;48.822;8.796;2022-12-07T03:56:12;7.20;57.20
47845;DHT22;33605;48.822;8.796;2022-12-07T03:58:39;7.10;57.00
47845;DHT22;33605;48.822;8.796;2022-12-07T04:01:06;7.10;56.80
47845;DHT22;33605;48.822;8.796;2022-12-07T04:03:31;7.10;56.80
47845;DHT22;33605;48.822;8.796;2022-12-07T04:05:57;7.10;56.80
47845;DHT22;33605;48.822;8.796;2022-12-07T04:08:24;7.00;56.60
47845;DHT22;33605;48.822;8.796;2022-12-07T04:10:49;7.00;56.40
47845;DHT22;33605;48.822;8.796;2022-12-07T04:13:15;7.00;56.30
47845;DHT22;33605;48.822;8.796;2022-12-07T04:15:41;7.00;56.40
47845;DHT22;33605;48.822;8.796;2022-12-07T04:18:06;6.90;56.30
47845;DHT22;33605;48.822;8.796;2022-12-07T04:20:32;6.90;56.40
47845;DHT22;33605;48.822;8.796;2022-12-07T04:22:57;6.90;56.50
47845;DHT22;33605;48.822;8.796;2022-12-07T04:25:23;6.90;56.60
47845;DHT22;33605;48.822;8.796;2022-12-07T04:27:49;6.90;56.60
47845;DHT22;33605;48.822;8.796;2022-12-07T04:30:15;6.90;56.60
47845;DHT22;33605;48.822;8.796;2022-12-07T04:32:40;6.90;56.50
47845;DHT22;33605;48.822;8.796;2022-12-07T04:35:06;6.90;56.40
47845;DHT22;33605;48.822;8.796;2022-12-07T04:37:32;6.90;56.30
47845;DHT22;33605;48.822;8.796;2022-12-07T04:39:58;6.90;56.10
47845;DHT22;33605;48.822;8.796;2022-12-07T04:42:23;6.90;55.90
47845;DHT22;33605;48.822;8.796;2022-12-07T04:44:49;6.90;55.70
47845;DHT22;33605;48.822;8.796;2022-12-07T04:47:16;6.90;55.50
47845;DHT22;33605;48.822;8.796;2022-12-07T04:49:42;6.90;55.80
47845;DHT22;33605;48.822;8.796;2022-12-07T04:52:07;6.90;55.00
47845;DHT22;33605;48.822;8.796;2022-12-07T04:54:33;6.80;54.80
47845;DHT22;33605;48.822;8.796;2022-12-07T04:56:59;6.80;54.80
47845;DHT22;33605;48.822;8.796;2022-12-07T04:59:24;6.90;54.80
47845;DHT22;33605;48.822;8.796;2022-12-07T05:01:50;6.80;54.70
47845;DHT22;33605;48.822;8.796;2022-12-07T05:04:16;6.80;54.60
47845;DHT22;33605;48.822;8.796;2022-12-07T05:06:43;6.70;54.50
47845;DHT22;33605;48.822;8.796;2022-12-07T05:09:09;6.70;54.60
47845;DHT22;33605;48.822;8.796;2022-12-07T05:11:34;6.70;54.60
47845;DHT22;33605;48.822;8.796;2022-12-07T05:14:05;6.70;54.70
47845;DHT22;33605;48.822;8.796;2022-12-07T05:16:31;6.60;54.60
47845;DHT22;33605;48.822;8.796;2022-12-07T05:18:57;6.60;54.70
47845;DHT22;33605;48.822;8.796;2022-12-07T05:21:23;6.50;54.70
47845;DHT22;33605;48.822;8.796;2022-12-07T05:23:48;6.50;54.80
47845;DHT22;33605;48.822;8.796;2022-12-07T05:26:15;6.50;55.00
47845;DHT22;33605;48.822;8.796;2022-12-07T05:28:41;6.40;55.20
47845;DHT22;33605;48.822;8.796;2022-12-07T05:31:07;6.40;55.40
47845;DHT22;33605;48.822;8.796;2022-12-07T05:33:32;6.30;55.50
47845;DHT22;33605;48.822;8.796;2022-12-07T05:36:01;6.30;55.60
47845;DHT22;33605;48.822;8.796;2022-12-07T05:38:32;6.30;55.70
47845;DHT22;33605;48.822;8.796;2022-12-07T05:41:02;6.20;55.70
47845;DHT22;33605;48.822;8.796;2022-12-07T05:43:28;6.20;55.70
47845;DHT22;33605;48.822;8.796;2022-12-07T05:45:54;6.20;55.70
47845;DHT22;33605;48.822;8.796;2022-12-07T05:48:20;6.20;55.70
47845;DHT22;33605;48.822;8.796;2022-12-07T05:50:48;6.20;55.80
47845;DHT22;33605;48.822;8.796;2022-12-07T05:53:14;6.10;55.80
47845;DHT22;33605;48.822;8.796;2022-12-07T05:55:39;6.20;56.00
47845;DHT22;33605;48.822;8.796;2022-12-07T05:58:05;6.20;56.00
47845;DHT22;33605;48.822;8.796;2022-12-07T06:00:49;6.10;56.00
47845;DHT22;33605;48.822;8.796;2022-12-07T06:03:15;6.10;56.00
47845;DHT22;33605;48.822;8.796;2022-12-07T06:05:41;6.10;56.10
47845;DHT22;33605;48.822;8.796;2022-12-07T06:08:07;6.10;56.20
47845;DHT22;33605;48.822;8.796;2022-12-07T06:10:32;6.10;56.80
47845;DHT22;33605;48.822;8.796;2022-12-07T06:12:58;6.10;56.10
47845;DHT22;33605;48.822;8.796;2022-12-07T06:15:24;6.10;56.10
47845;DHT22;33605;48.822;8.796;2022-12-07T06:17:50;6.10;56.00
47845;DHT22;33605;48.822;8.796;2022-12-07T06:20:16;6.10;56.00
47845;DHT22;33605;48.822;8.796;2022-12-07T06:22:41;6.10;55.90
47845;DHT22;33605;48.822;8.796;2022-12-07T06:25:07;6.10;55.60
47845;DHT22;33605;48.822;8.796;2022-12-07T06:27:33;6.10;55.40
47845;DHT22;33605;48.822;8.796;2022-12-07T06:29:59;6.10;55.00
47845;DHT22;33605;48.822;8.796;2022-12-07T06:32:25;6.10;54.60
47845;DHT22;33605;48.822;8.796;2022-12-07T06:34:50;6.10;54.30
47845;DHT22;33605;48.822;8.796;2022-12-07T06:37:16;6.10;53.90
47845;DHT22;33605;48.822;8.796;2022-12-07T06:39:42;6.10;53.90
47845;DHT22;33605;48.822;8.796;2022-12-07T06:42:08;6.10;53.80
47845;DHT22;33605;48.822;8.796;2022-12-07T06:44:34;6.10;53.70
47845;DHT22;33605;48.822;8.796;2022-12-07T06:46:59;6.10;53.50
47845;DHT22;33605;48.822;8.796;2022-12-07T06:49:25;6.20;53.30
47845;DHT22;33605;48.822;8.796;2022-12-07T06:51:51;6.20;53.10
47845;DHT22;33605;48.822;8.796;2022-12-07T06:54:16;6.20;52.90
47845;DHT22;33605;48.822;8.796;2022-12-07T06:56:42;6.20;52.60
47845;DHT22;33605;48.822;8.796;2022-12-07T06:59:08;6.20;52.20
47845;DHT22;33605;48.822;8.796;2022-12-07T07:01:34;6.20;52.00
47845;DHT22;33605;48.822;8.796;2022-12-07T07:04:00;6.30;52.00
47845;DHT22;33605;48.822;8.796;2022-12-07T07:06:29;6.20;52.00
47845;DHT22;33605;48.822;8.796;2022-12-07T07:08:55;6.30;52.10
47845;DHT22;33605;48.822;8.796;2022-12-07T07:11:20;6.30;52.10
47845;DHT22;33605;48.822;8.796;2022-12-07T07:13:46;6.20;51.80
47845;DHT22;33605;48.822;8.796;2022-12-07T07:16:12;6.20;51.80
47845;DHT22;33605;48.822;8.796;2022-12-07T07:18:37;6.30;51.90
47845;DHT22;33605;48.822;8.796;2022-12-07T07:21:03;6.30;51.90
47845;DHT22;33605;48.822;8.796;2022-12-07T07:23:29;6.30;52.00
47845;DHT22;33605;48.822;8.796;2022-12-07T07:25:55;6.30;51.90
47845;DHT22;33605;48.822;8.796;2022-12-07T07:28:20;6.30;51.90
47845;DHT22;33605;48.822;8.796;2022-12-07T07:30:46;6.40;51.90
47845;DHT22;33605;48.822;8.796;2022-12-07T07:33:12;6.40;51.70
47845;DHT22;33605;48.822;8.796;2022-12-07T07:35:41;6.40;51.40
47845;DHT22;33605;48.822;8.796;2022-12-07T07:38:06;6.40;51.30
47845;DHT22;33605;48.822;8.796;2022-12-07T07:40:32;6.40;51.10
47845;DHT22;33605;48.822;8.796;2022-12-07T07:42:58;6.40;51.20
47845;DHT22;33605;48.822;8.796;2022-12-07T07:45:25;6.40;51.10
47845;DHT22;33605;48.822;8.796;2022-12-07T07:47:51;6.40;51.20
47845;DHT22;33605;48.822;8.796;2022-12-07T07:50:18;6.50;51.40
47845;DHT22;33605;48.822;8.796;2022-12-07T07:52:44;6.50;51.30
47845;DHT22;33605;48.822;8.796;2022-12-07T07:55:10;6.50;51.10
47845;DHT22;33605;48.822;8.796;2022-12-07T07:57:38;6.50;51.10
47845;DHT22;33605;48.822;8.796;2022-12-07T08:00:06;6.60;51.00
47845;DHT22;33605;48.822;8.796;2022-12-07T08:02:32;6.60;50.80
47845;DHT22;33605;48.822;8.796;2022-12-07T08:05:01;6.50;50.80
47845;DHT22;33605;48.822;8.796;2022-12-07T08:07:27;6.50;50.50
47845;DHT22;33605;48.822;8.796;2022-12-07T08:09:53;6.50;50.70
47845;DHT22;33605;48.822;8.796;2022-12-07T08:12:18;6.60;50.90
47845;DHT22;33605;48.822;8.796;2022-12-07T08:14:44;6.60;50.90
47845;DHT22;33605;48.822;8.796;2022-12-07T08:17:10;6.60;50.90
47845;DHT22;33605;48.822;8.796;2022-12-07T08:19:35;6.60;50.90
47845;DHT22;33605;48.822;8.796;2022-12-07T08:22:01;6.60;50.90
47845;DHT22;33605;48.822;8.796;2022-12-07T08:24:26;6.60;51.00
47845;DHT22;33605;48.822;8.796;2022-12-07T08:26:52;6.70;51.80
47845;DHT22;33605;48.822;8.796;2022-12-07T08:29:18;6.70;51.20
47845;DHT22;33605;48.822;8.796;2022-12-07T08:31:43;6.70;51.40
47845;DHT22;33605;48.822;8.796;2022-12-07T08:34:13;6.70;51.50
47845;DHT22;33605;48.822;8.796;2022-12-07T08:36:39;6.80;51.60
47845;DHT22;33605;48.822;8.796;2022-12-07T08:39:04;6.80;51.80
47845;DHT22;33605;48.822;8.796;2022-12-07T08:41:31;6.80;51.90
47845;DHT22;33605;48.822;8.796;2022-12-07T08:43:57;6.80;52.00
47845;DHT22;33605;48.822;8.796;2022-12-07T08:46:45;6.90;52.20
47845;DHT22;33605;48.822;8.796;2022-12-07T08:49:16;6.90;52.40
47845;DHT22;33605;48.822;8.796;2022-12-07T08:51:43;7.00;52.60
47845;DHT22;33605;48.822;8.796;2022-12-07T08:54:13;7.00;52.80
47845;DHT22;33605;48.822;8.796;2022-12-07T08:56:40;7.00;52.90
47845;DHT22;33605;48.822;8.796;2022-12-07T08:59:06;7.10;53.10
47845;DHT22;33605;48.822;8.796;2022-12-07T09:01:32;7.10;53.20
47845;DHT22;33605;48.822;8.796;2022-12-07T09:03:58;7.10;53.30
47845;DHT22;33605;48.822;8.796;2022-12-07T09:06:24;7.20;53.50
47845;DHT22;33605;48.822;8.796;2022-12-07T09:08:51;7.20;53.50
47845;DHT22;33605;48.822;8.796;2022-12-07T09:11:19;7.30;53.50
47845;DHT22;33605;48.822;8.796;2022-12-07T09:13:44;7.30;53.50
47845;DHT22;33605;48.822;8.796;2022-12-07T09:16:10;7.30;53.50
47845;DHT22;33605;48.822;8.796;2022-12-07T09:18:36;7.40;54.10
47845;DHT22;33605;48.822;8.796;2022-12-07T09:21:01;7.40;55.00
47845;DHT22;33605;48.822;8.796;2022-12-07T09:23:27;7.40;55.40
47845;DHT22;33605;48.822;8.796;2022-12-07T09:25:52;7.50;55.40
47845;DHT22;33605;48.822;8.796;2022-12-07T09:28:18;7.60;55.40
47845;DHT22;33605;48.822;8.796;2022-12-07T09:30:47;7.70;54.90
47845;DHT22;33605;48.822;8.796;2022-12-07T09:33:13;7.80;54.50
47845;DHT22;33605;48.822;8.796;2022-12-07T09:35:50;7.90;54.20
47845;DHT22;33605;48.822;8.796;2022-12-07T09:38:16;8.00;53.80
47845;DHT22;33605;48.822;8.796;2022-12-07T09:40:42;8.10;53.70
47845;DHT22;33605;48.822;8.796;2022-12-07T09:43:20;8.10;53.60
47845;DHT22;33605;48.822;8.796;2022-12-07T09:45:48;8.10;53.30
47845;DHT22;33605;48.822;8.796;2022-12-07T09:48:18;8.10;53.20
47845;DHT22;33605;48.822;8.796;2022-12-07T09:50:45;8.20;53.10
47845;DHT22;33605;48.822;8.796;2022-12-07T12:24:50;8.20;53.10
47845;DHT22;33605;48.822;8.796;2022-12-07T12:35:29;8.40;53.80
47845;DHT22;33605;48.822;8.796;2022-12-07T12:40:42;8.40;53.40
47845;DHT22;33605;48.822;8.796;2022-12-07T12:49:30;8.40;53.30
47845;DHT22;33605;48.822;8.796;2022-12-07T12:52:01;8.40;53.50
47845;DHT22;33605;48.822;8.796;2022-12-07T12:57:30;8.40;53.60
47845;DHT22;33605;48.822;8.796;2022-12-07T13:02:53;8.40;53.50
47845;DHT22;33605;48.822;8.796;2022-12-07T13:05:22;8.40;53.60
47845;DHT22;33605;48.822;8.796;2022-12-07T13:13:05;8.40;53.70
47845;DHT22;33605;48.822;8.796;2022-12-07T13:41:15;8.40;53.60
47845;DHT22;33605;48.822;8.796;2022-12-07T13:43:51;8.70;54.10
47845;DHT22;33605;48.822;8.796;2022-12-07T14:51:13;8.90;55.00
47845;DHT22;33605;48.822;8.796;2022-12-07T14:53:42;12.30;40.70
47845;DHT22;33605;48.822;8.796;2022-12-07T14:56:09;12.00;40.80
47845;DHT22;33605;48.822;8.796;2022-12-07T14:58:35;11.70;41.00
47845;DHT22;33605;48.822;8.796;2022-12-07T15:01:00;11.50;41.20
47845;DHT22;33605;48.822;8.796;2022-12-07T15:03:26;11.30;41.30
47845;DHT22;33605;48.822;8.796;2022-12-07T15:05:55;11.00;41.40
47845;DHT22;33605;48.822;8.796;2022-12-07T15:08:20;10.80;42.40
47845;DHT22;33605;48.822;8.796;2022-12-07T15:10:46;10.60;42.00
47845;DHT22;33605;48.822;8.796;2022-12-07T15:13:11;10.40;42.20
47845;DHT22;33605;48.822;8.796;2022-12-07T15:15:55;10.30;42.60
47845;DHT22;33605;48.822;8.796;2022-12-07T15:18:22;10.10;42.70
47845;DHT22;33605;48.822;8.796;2022-12-07T15:20:49;9.90;43.90
47845;DHT22;33605;48.822;8.796;2022-12-07T15:23:15;9.80;44.30
47845;DHT22;33605;48.822;8.796;2022-12-07T15:25:41;9.70;44.50
47845;DHT22;33605;48.822;8.796;2022-12-07T15:28:08;9.60;44.80
47845;DHT22;33605;48.822;8.796;2022-12-07T15:30:36;9.50;45.00
47845;DHT22;33605;48.822;8.796;2022-12-07T15:33:01;9.40;45.20
47845;DHT22;33605;48.822;8.796;2022-12-07T15:35:27;9.20;45.40
47845;DHT22;33605;48.822;8.796;2022-12-07T15:37:52;9.20;45.60
47845;DHT22;33605;48.822;8.796;2022-12-07T15:40:18;9.10;45.80
47845;DHT22;33605;48.822;8.796;2022-12-07T15:42:44;9.00;45.90
47845;DHT22;33605;48.822;8.796;2022-12-07T15:45:10;9.00;46.20
47845;DHT22;33605;48.822;8.796;2022-12-07T15:47:40;8.90;46.20
47845;DHT22;33605;48.822;8.796;2022-12-07T15:50:09;8.90;46.40
47845;DHT22;33605;48.822;8.796;2022-12-07T15:52:35;8.80;46.60
47845;DHT22;33605;48.822;8.796;2022-12-07T15:55:01;8.80;46.80
47845;DHT22;33605;48.822;8.796;2022-12-07T15:57:31;8.70;47.40
47845;DHT22;33605;48.822;8.796;2022-12-07T15:59:57;8.60;47.90
47845;DHT22;33605;48.822;8.796;2022-12-07T16:02:23;8.60;48.20
47845;DHT22;33605;48.822;8.796;2022-12-07T16:04:49;8.60;48.40
47845;DHT22;33605;48.822;8.796;2022-12-07T16:07:16;8.60;48.60
47845;DHT22;33605;48.822;8.796;2022-12-07T16:09:42;8.50;48.80
47845;DHT22;33605;48.822;8.796;2022-12-07T16:12:09;8.50;49.10
47845;DHT22;33605;48.822;8.796;2022-12-07T16:14:35;8.50;49.30
47845;DHT22;33605;48.822;8.796;2022-12-07T16:17:00;8.50;49.40
47845;DHT22;33605;48.822;8.796;2022-12-07T16:19:26;8.40;49.50
47845;DHT22;33605;48.822;8.796;2022-12-07T16:21:51;8.40;49.80
47845;DHT22;33605;48.822;8.796;2022-12-07T16:24:17;8.30;49.90
47845;DHT22;33605;48.822;8.796;2022-12-07T16:26:44;8.20;50.00
47845;DHT22;33605;48.822;8.796;2022-12-07T16:29:13;8.20;50.30
47845;DHT22;33605;48.822;8.796;2022-12-07T16:31:39;8.10;50.50
47845;DHT22;33605;48.822;8.796;2022-12-07T16:34:05;8.10;50.70
47845;DHT22;33605;48.822;8.796;2022-12-07T16:36:31;8.00;50.90
47845;DHT22;33605;48.822;8.796;2022-12-07T16:38:58;7.90;50.90
47845;DHT22;33605;48.822;8.796;2022-12-07T16:41:24;7.90;51.30
47845;DHT22;33605;48.822;8.796;2022-12-07T16:43:50;7.80;51.50
47845;DHT22;33605;48.822;8.796;2022-12-07T16:46:16;7.80;51.70
47845;DHT22;33605;48.822;8.796;2022-12-07T16:48:41;7.80;52.00
47845;DHT22;33605;48.822;8.796;2022-12-07T16:51:10;7.70;52.10
47845;DHT22;33605;48.822;8.796;2022-12-07T16:53:37;7.70;52.40
47845;DHT22;33605;48.822;8.796;2022-12-07T16:56:04;7.70;52.60
47845;DHT22;33605;48.822;8.796;2022-12-07T16:58:31;7.70;52.80
47845;DHT22;33605;48.822;8.796;2022-12-07T17:00:56;7.70;53.00
47845;DHT22;33605;48.822;8.796;2022-12-07T17:03:22;7.70;53.10
47845;DHT22;33605;48.822;8.796;2022-12-07T17:05:48;7.70;53.20
47845;DHT22;33605;48.822;8.796;2022-12-07T17:08:14;7.70;53.40
47845;DHT22;33605;48.822;8.796;2022-12-07T17:10:43;7.70;53.40
47845;DHT22;33605;48.822;8.796;2022-12-07T17:13:10;7.80;53.60
47845;DHT22;33605;48.822;8.796;2022-12-07T17:16:00;7.80;53.60
47845;DHT22;33605;48.822;8.796;2022-12-07T17:18:31;7.80;53.70
47845;DHT22;33605;48.822;8.796;2022-12-07T17:21:03;7.80;53.80
47845;DHT22;33605;48.822;8.796;2022-12-07T17:23:29;7.80;53.80
47845;DHT22;33605;48.822;8.796;2022-12-07T17:25:55;7.80;53.80
47845;DHT22;33605;48.822;8.796;2022-12-07T17:28:21;7.80;53.80
47845;DHT22;33605;48.822;8.796;2022-12-07T17:30:46;7.80;53.90
47845;DHT22;33605;48.822;8.796;2022-12-07T17:33:12;7.80;54.00
47845;DHT22;33605;48.822;8.796;2022-12-07T17:35:38;7.80;54.10
47845;DHT22;33605;48.822;8.796;2022-12-07T17:38:04;7.80;54.20
47845;DHT22;33605;48.822;8.796;2022-12-07T17:40:30;7.80;54.20
47845;DHT22;33605;48.822;8.796;2022-12-07T17:42:56;7.70;54.80
47845;DHT22;33605;48.822;8.796;2022-12-07T17:45:21;7.70;54.10
47845;DHT22;33605;48.822;8.796;2022-12-07T17:47:47;7.70;54.00
47845;DHT22;33605;48.822;8.796;2022-12-07T17:50:12;7.70;53.90
47845;DHT22;33605;48.822;8.796;2022-12-07T17:52:40;7.70;53.90
47845;DHT22;33605;48.822;8.796;2022-12-07T17:55:25;7.60;53.90
47845;DHT22;33605;48.822;8.796;2022-12-07T17:57:50;7.60;53.80
47845;DHT22;33605;48.822;8.796;2022-12-07T18:00:16;7.50;53.70
47845;DHT22;33605;48.822;8.796;2022-12-07T18:02:42;7.50;53.70
47845;DHT22;33605;48.822;8.796;2022-12-07T18:05:08;7.50;53.70
47845;DHT22;33605;48.822;8.796;2022-12-07T18:07:35;7.50;53.90
47845;DHT22;33605;48.822;8.796;2022-12-07T18:10:01;7.40;53.90
47845;DHT22;33605;48.822;8.796;2022-12-07T18:12:29;7.40;53.90
47845;DHT22;33605;48.822;8.796;2022-12-07T18:14:55;7.40;54.00
47845;DHT22;33605;48.822;8.796;2022-12-07T18:17:21;7.30;54.00
47845;DHT22;33605;48.822;8.796;2022-12-07T18:19:47;7.30;54.10
47845;DHT22;33605;48.822;8.796;2022-12-07T18:22:12;7.30;54.10
47845;DHT22;33605;48.822;8.796;2022-12-07T18:24:38;7.20;54.10
47845;DHT22;33605;48.822;8.796;2022-12-07T18:27:05;7.20;54.10
47845;DHT22;33605;48.822;8.796;2022-12-07T18:29:31;7.20;54.20
47845;DHT22;33605;48.822;8.796;2022-12-07T18:31:56;7.10;54.10
47845;DHT22;33605;48.822;8.796;2022-12-07T18:34:22;7.10;54.10
47845;DHT22;33605;48.822;8.796;2022-12-07T18:36:48;7.10;54.20
47845;DHT22;33605;48.822;8.796;2022-12-07T18:39:15;7.00;54.20
47845;DHT22;33605;48.822;8.796;2022-12-07T18:41:41;7.00;54.30
47845;DHT22;33605;48.822;8.796;2022-12-07T18:44:07;7.00;54.30
47845;DHT22;33605;48.822;8.796;2022-12-07T18:46:34;6.90;54.30
47845;DHT22;33605;48.822;8.796;2022-12-07T18:49:00;6.90;54.40
47845;DHT22;33605;48.822;8.796;2022-12-07T18:51:26;7.00;54.60
47845;DHT22;33605;48.822;8.796;2022-12-07T18:53:55;6.90;54.60
47845;DHT22;33605;48.822;8.796;2022-12-07T18:56:23;6.90;54.50
47845;DHT22;33605;48.822;8.796;2022-12-07T18:58:53;6.90;55.20
47845;DHT22;33605;48.822;8.796;2022-12-07T19:01:38;6.90;54.60
47845;DHT22;33605;48.822;8.796;2022-12-07T19:04:04;6.90;54.50
47845;DHT22;33605;48.822;8.796;2022-12-07T19:06:30;6.90;54.50
47845;DHT22;33605;48.822;8.796;2022-12-07T19:08:56;7.00;54.60
47845;DHT22;33605;48.822;8.796;2022-12-07T19:11:28;6.90;54.50
47845;DHT22;33605;48.822;8.796;2022-12-07T19:14:13;6.90;54.60
47845;DHT22;33605;48.822;8.796;2022-12-07T19:16:41;7.00;54.60
47845;DHT22;33605;48.822;8.796;2022-12-07T19:19:07;7.00;54.60
47845;DHT22;33605;48.822;8.796;2022-12-07T19:21:32;7.00;54.60
47845;DHT22;33605;48.822;8.796;2022-12-07T19:23:58;7.00;54.60
47845;DHT22;33605;48.822;8.796;2022-12-07T19:26:23;7.00;54.50
47845;DHT22;33605;48.822;8.796;2022-12-07T19:28:49;7.00;54.50
47845;DHT22;33605;48.822;8.796;2022-12-07T19:31:15;7.00;54.60
47845;DHT22;33605;48.822;8.796;2022-12-07T19:33:41;7.00;54.60
47845;DHT22;33605;48.822;8.796;2022-12-07T19:36:07;7.00;54.50
47845;DHT22;33605;48.822;8.796;2022-12-07T19:38:33;7.00;54.30
47845;DHT22;33605;48.822;8.796;2022-12-07T19:41:11;7.00;54.30
47845;DHT22;33605;48.822;8.796;2022-12-07T19:43:57;7.00;54.90
47845;DHT22;33605;48.822;8.796;2022-12-07T19:46:24;7.00;54.30
47845;DHT22;33605;48.822;8.796;2022-12-07T19:48:52;7.00;54.40
47845;DHT22;33605;48.822;8.796;2022-12-07T19:51:18;7.00;54.40
47845;DHT22;33605;48.822;8.796;2022-12-07T19:53:43;7.00;54.40
47845;DHT22;33605;48.822;8.796;2022-12-07T19:56:14;7.00;54.50
47845;DHT22;33605;48.822;8.796;2022-12-07T19:58:40;7.00;54.70
47845;DHT22;33605;48.822;8.796;2022-12-07T20:01:06;7.00;54.60
47845;DHT22;33605;48.822;8.796;2022-12-07T20:03:32;7.00;54.60
47845;DHT22;33605;48.822;8.796;2022-12-07T20:05:58;7.00;54.50
47845;DHT22;33605;48.822;8.796;2022-12-07T20:08:24;7.00;54.50
47845;DHT22;33605;48.822;8.796;2022-12-07T20:10:51;7.00;54.30
47845;DHT22;33605;48.822;8.796;2022-12-07T20:13:17;7.00;54.30
47845;DHT22;33605;48.822;8.796;2022-12-07T20:15:57;7.00;54.10
47845;DHT22;33605;48.822;8.796;2022-12-07T20:18:22;7.00;54.20
47845;DHT22;33605;48.822;8.796;2022-12-07T20:20:52;6.90;53.70
47845;DHT22;33605;48.822;8.796;2022-12-07T20:23:18;6.90;53.70
47845;DHT22;33605;48.822;8.796;2022-12-07T20:25:44;6.90;53.70
47845;DHT22;33605;48.822;8.796;2022-12-07T20:28:09;6.90;53.60
47845;DHT22;33605;48.822;8.796;2022-12-07T20:30:35;6.90;53.70
47845;DHT22;33605;48.822;8.796;2022-12-07T20:33:00;6.90;53.70
47845;DHT22;33605;48.822;8.796;2022-12-07T20:35:26;6.90;53.60
47845;DHT22;33605;48.822;8.796;2022-12-07T20:37:51;6.90;53.50
47845;DHT22;33605;48.822;8.796;2022-12-07T20:40:17;6.80;53.30
47845;DHT22;33605;48.822;8.796;2022-12-07T20:42:42;6.80;53.20